KHWO/HWO METAR and TAF weather

Enter ICAO airport designator
Station Type Date Time Source
KHWO METAR 2022/05/24 10:53 UTC NOAA

KHWO 241053Z 12010KT 10SM CLR 26/21 A3003 RMK AO2 SLP170 T02610211


Station Type Date Time Source
KHWO Decoded METAR 2022/05/24 10:53 UTC NOAA

HOLLYWOOD NORTH PERRY AIRPORT , FL, United States (KHWO) 26-00N 080-14W 2M
May 24, 2022 - 06:53 AM EDT / 2022.05.24 1053 UTC
Wind: from the ESE (120 degrees) at 12 MPH (10 KT):0
Visibility: 10 mile(s):0
Sky conditions: clear
Temperature: 79.0 F (26.1 C)
Dew Point: 70.0 F (21.1 C)
Relative Humidity: 73%
Pressure (altimeter): 30.03 in. Hg (1016 hPa)
ob: KHWO 241053Z 12010KT 10SM CLR 26/21 A3003 RMK AO2 SLP170 T02610211
cycle: 11

Station Type Date Time Source
KHWO TAF 2020/02/03 18:20 UTC NOAA

TAF KHWO 031720Z 0318/0418 12005KT P6SM SKC
FM040000 VRB03KT P6SM SKC
FM041500 14010KT P6SM FEW030

Example: see airport list